Time;durP1;ratioP1;P1;durP2;ratioP2;P2;SDS_P1;SDS_P2;PMS_P1;PMS_P2;Temp;Humidity;BMP_temperature;BMP_pressure;BME280_temperature;BME280_humidity;BME280_pressure;Samples;Min_cycle;Max_cycle;Signal;HPM_P1;HPM_P2
2021/04/10 00:01:09;;;;;;;27.25;16.45;;;9.40;90.90;;;9.44;75.92;100087.31;4988716;28;20414;-81
2021/04/10 00:03:36;;;;;;;27.42;17.88;;;9.40;90.60;;;9.44;76.17;100091.91;4990021;28;20085;-81
2021/04/10 00:06:03;;;;;;;23.08;15.80;;;9.40;90.80;;;9.42;76.01;100089.38;4989965;28;20522;-81
2021/04/10 00:08:30;;;;;;;26.83;18.02;;;9.40;90.80;;;9.43;76.10;100093.78;4989387;28;20431;-81
2021/04/10 00:10:58;;;;;;;27.35;18.00;;;9.40;91.10;;;9.43;76.35;100090.22;4989981;28;20053;-81
2021/04/10 00:13:25;;;;;;;25.15;16.35;;;9.40;91.10;;;9.44;76.52;100097.34;4987260;28;20109;-81
2021/04/10 00:15:52;;;;;;;27.48;17.13;;;9.40;91.20;;;9.42;76.43;100088.53;4990367;28;20041;-81
2021/04/10 00:18:18;;;;;;;31.48;17.90;;;9.30;91.30;;;9.43;76.39;100087.50;4990027;28;20042;-81
2021/04/10 00:20:45;;;;;;;28.70;17.75;;;9.40;91.30;;;9.40;76.57;100088.72;4987131;28;20120;-81
2021/04/10 00:23:12;;;;;;;25.20;17.85;;;9.30;91.70;;;9.38;76.58;100086.19;4988599;28;20054;-81
2021/04/10 00:25:41;;;;;;;26.98;17.13;;;9.40;91.10;;;9.39;75.96;100089.75;4989814;28;20045;-81
2021/04/10 00:28:09;;;;;;;30.08;17.25;;;9.40;90.90;;;9.38;75.83;100088.91;4993586;28;20061;-81
2021/04/10 00:30:36;;;;;;;26.30;17.50;;;9.30;90.80;;;9.38;76.39;100088.06;4993884;28;21174;-81
2021/04/10 00:33:03;;;;;;;29.05;18.33;;;9.30;90.80;;;9.36;76.48;100085.53;4994394;28;20393;-81
2021/04/10 00:35:30;;;;;;;26.75;18.55;;;9.30;91.10;;;9.36;76.55;100090.13;4992410;28;20043;-81
2021/04/10 00:37:57;;;;;;;26.23;17.95;;;9.30;91.50;;;9.32;76.97;100092.38;4992792;28;20046;-81
2021/04/10 00:40:24;;;;;;;27.70;18.77;;;9.20;91.50;;;9.32;76.69;100089.66;4991978;28;20046;-81
2021/04/10 00:42:51;;;;;;;26.88;18.67;;;9.20;91.60;;;9.33;76.52;100101.38;4993310;28;20101;-81
2021/04/10 00:45:21;;;;;;;31.05;18.77;;;9.20;91.60;;;9.31;76.75;100104.28;4992070;28;20125;-81
2021/04/10 00:47:49;;;;;;;28.90;20.08;;;9.20;91.70;;;9.31;76.85;100108.84;4993137;28;20133;-81
2021/04/10 00:50:16;;;;;;;26.83;17.67;;;9.20;92.10;;;9.31;76.78;100108.84;4993363;28;20038;-81
2021/04/10 00:52:43;;;;;;;28.00;19.25;;;9.20;92.30;;;9.31;76.93;100107.00;4992592;28;20124;-81
2021/04/10 00:55:12;;;;;;;28.80;19.55;;;9.10;92.30;;;9.28;76.71;100107.34;4992520;28;20046;-81
2021/04/10 00:57:40;;;;;;;29.20;19.63;;;9.10;92.30;;;9.26;77.12;100101.28;4992864;28;20049;-81
2021/04/10 01:00:08;;;;;;;27.67;18.60;;;9.10;92.20;;;9.26;76.91;100098.56;4992401;28;20073;-81
2021/04/10 01:02:39;;;;;;;28.23;19.45;;;9.10;92.40;;;9.26;76.75;100090.41;4992160;28;20034;-81
2021/04/10 01:05:08;;;;;;;30.65;20.13;;;9.10;92.40;;;9.24;76.82;100097.91;4990053;28;20050;-81
2021/04/10 01:07:35;;;;;;;27.10;19.55;;;9.10;92.50;;;9.25;77.10;100107.72;4992686;28;20061;-81
2021/04/10 01:10:03;;;;;;;30.30;19.67;;;9.10;92.60;;;9.24;77.17;100097.06;4989900;28;20046;-81
2021/04/10 01:12:49;;;;;;;27.30;18.95;;;9.10;92.60;;;9.24;77.18;100095.19;4991324;28;20175;-81
2021/04/10 01:15:24;;;;;;;29.55;19.80;;;9.10;92.80;;;9.23;77.29;100096.19;4988099;28;20053;-81
2021/04/10 01:18:00;;;;;;;30.67;19.63;;;9.10;92.90;;;9.24;77.29;100099.78;4992942;28;20096;-81
2021/04/10 01:21:09;;;;;;;29.48;20.33;;;9.10;93.10;;;9.22;77.47;100099.97;4990158;28;20046;-80
2021/04/10 01:24:34;;;;;;;31.08;20.65;;;9.10;93.10;;;9.20;77.54;100096.59;4992444;28;20581;-81
2021/04/10 01:27:38;;;;;;;30.10;20.98;;;9.10;93.00;;;9.17;77.93;100096.94;4988556;28;20081;-81
2021/04/10 01:30:11;;;;;;;32.72;21.45;;;9.10;93.20;;;9.16;77.77;100101.53;4990938;28;20075;-81
2021/04/10 01:32:49;;;;;;;33.05;21.92;;;9.10;93.10;;;9.18;78.02;100098.66;4990115;28;20679;-81
2021/04/10 01:35:19;;;;;;;34.70;22.65;;;9.10;93.20;;;9.16;78.05;100096.13;4991838;28;20042;-81
2021/04/10 01:37:53;;;;;;;38.72;23.17;;;9.10;93.30;;;9.17;77.90;100096.94;4988733;28;20070;-81
2021/04/10 01:40:23;;;;;;;29.17;20.83;;;9.10;93.50;;;9.18;78.30;100098.66;4991582;28;20041;-81
2021/04/10 01:42:54;;;;;;;30.05;21.27;;;9.10;93.40;;;9.17;78.27;100096.94;5000726;28;20034;-81
2021/04/10 01:45:22;;;;;;;31.38;21.30;;;9.10;93.60;;;9.16;77.97;100101.53;4990295;28;20050;-80
2021/04/10 01:47:54;;;;;;;29.10;21.35;;;9.10;93.50;;;9.16;78.31;100098.00;4990780;28;20039;-81
2021/04/10 01:50:22;;;;;;;29.90;20.08;;;9.10;93.60;;;9.16;78.31;100100.72;4992511;28;20039;-81
2021/04/10 01:52:52;;;;;;;32.15;22.27;;;9.10;93.60;;;9.16;78.41;100112.41;4989701;28;20727;-82
2021/04/10 01:55:20;;;;;;;34.50;22.48;;;9.10;93.60;;;9.16;77.90;100115.13;4990470;28;20047;-81
2021/04/10 01:57:52;;;;;;;33.65;22.52;;;9.10;94.00;;;9.13;78.25;100106.50;4991567;28;20109;-81
2021/04/10 02:00:25;;;;;;;29.48;21.80;;;9.10;93.90;;;9.15;78.45;100109.88;4989281;28;20050;-81
2021/04/10 02:02:58;;;;;;;32.75;23.17;;;9.10;94.10;;;9.12;78.33;100105.66;4989489;28;20041;-81
2021/04/10 02:05:27;;;;;;;33.45;23.63;;;9.10;94.00;;;9.13;78.34;100106.50;4987963;28;20145;-81
2021/04/10 02:08:09;;;;;;;34.50;24.75;;;9.10;94.10;;;9.14;78.64;100102.78;4992288;28;20549;-81
2021/04/10 02:10:38;;;;;;;37.33;24.65;;;9.10;94.10;;;9.13;78.61;100099.19;4989573;28;20536;-81
2021/04/10 02:13:34;;;;;;;37.13;24.90;;;9.10;94.10;;;9.14;78.63;100097.34;4984465;28;20054;-81
2021/04/10 02:16:04;;;;;;;38.30;24.88;;;9.10;94.10;;;9.14;79.09;100108.19;4989697;28;20038;-81
2021/04/10 02:18:36;;;;;;;40.05;25.58;;;9.10;94.30;;;9.13;78.37;100104.63;4990638;28;20046;-81
2021/04/10 02:21:10;;;;;;;44.55;26.98;;;9.10;94.30;;;9.12;78.41;100099.38;4989619;28;20726;-81
2021/04/10 02:23:39;;;;;;;37.80;25.83;;;9.10;94.30;;;9.12;79.08;100102.94;4988242;28;20454;-81
2021/04/10 02:26:11;;;;;;;43.60;27.63;;;9.10;94.30;;;9.13;78.92;100092.94;4990277;28;20046;-81
2021/04/10 02:28:39;;;;;;;40.65;26.48;;;9.10;94.40;;;9.11;78.80;100095.81;4989860;28;20132;-81
2021/04/10 02:31:07;;;;;;;40.60;27.10;;;9.10;94.40;;;9.13;78.93;100087.50;4988969;28;20050;-81
2021/04/10 02:33:40;;;;;;;44.22;30.05;;;9.10;94.60;;;9.13;78.63;100084.78;4989817;28;20046;-81
2021/04/10 02:36:16;;;;;;;44.53;29.73;;;9.10;94.60;;;9.14;78.97;100081.06;4989837;28;20050;-81
2021/04/10 02:38:46;;;;;;;45.63;30.42;;;9.10;94.80;;;9.16;79.03;100079.81;4988832;28;20092;-80
2021/04/10 02:41:20;;;;;;;41.95;28.27;;;9.00;95.00;;;9.15;78.80;100082.72;4989056;28;20101;-81
2021/04/10 02:43:56;;;;;;;48.40;29.35;;;9.00;94.80;;;9.16;79.13;100085.25;4988461;28;20054;-81
2021/04/10 02:46:28;;;;;;;42.35;27.73;;;9.10;94.90;;;9.15;78.90;100088.16;4989306;28;20418;-80
2021/04/10 02:49:03;;;;;;;39.95;27.80;;;9.10;94.80;;;9.14;79.20;100098.19;4990045;28;20055;-81
2021/04/10 02:51:39;;;;;;;42.80;28.30;;;9.10;94.80;;;9.13;79.47;100095.63;4997678;28;20050;-81
2021/04/10 02:54:08;;;;;;;40.85;28.38;;;9.10;94.70;;;9.13;79.44;100093.75;4988095;28;20123;-81
2021/04/10 02:56:45;;;;;;;42.50;29.17;;;9.20;94.60;;;9.10;79.69;100107.72;4989264;28;20042;-80
2021/04/10 02:59:14;;;;;;;41.50;28.10;;;9.10;94.80;;;9.12;79.12;100110.22;4989043;28;20140;-80
2021/04/10 03:01:45;;;;;;;48.00;30.55;;;9.10;94.70;;;9.12;79.67;100104.78;4989151;28;20050;-81
2021/04/10 03:04:13;;;;;;;42.80;29.00;;;9.10;95.00;;;9.04;79.99;100094.03;4988877;28;20133;-81
2021/04/10 03:06:41;;;;;;;48.03;30.63;;;9.10;95.30;;;9.07;79.69;100109.97;4990044;28;20035;-81
2021/04/10 03:09:09;;;;;;;43.42;29.50;;;9.10;95.00;;;9.10;79.65;100112.28;4989086;28;20065;-80
2021/04/10 03:11:37;;;;;;;46.15;31.15;;;9.10;94.80;;;9.10;79.50;100113.16;4990120;28;20042;-81
2021/04/10 03:14:05;;;;;;;46.95;30.23;;;9.10;95.20;;;9.09;79.63;100116.03;4988898;28;20042;-81
2021/04/10 03:16:33;;;;;;;45.38;29.83;;;9.10;95.10;;;9.10;79.71;100115.00;4987947;28;20784;-81
2021/04/10 03:19:09;;;;;;;44.67;29.70;;;9.10;95.20;;;9.08;79.54;100120.63;4996421;28;20047;-81
2021/04/10 03:21:43;;;;;;;47.20;29.58;;;9.10;95.00;;;9.11;79.39;100124.84;4999437;28;20743;-80
2021/04/10 03:24:12;;;;;;;43.85;28.65;;;9.10;95.10;;;9.12;79.70;100118.38;5003934;28;20123;-81
2021/04/10 03:26:40;;;;;;;42.38;29.02;;;9.10;95.20;;;9.09;79.83;100127.75;4988019;28;20045;-81
2021/04/10 03:29:11;;;;;;;40.47;26.90;;;9.10;95.60;;;9.09;79.56;100122.31;4988487;28;20054;-81
2021/04/10 03:31:46;;;;;;;41.08;26.67;;;9.10;95.40;;;9.11;80.25;100141.13;4988631;28;20050;-81
2021/04/10 03:34:14;;;;;;;40.60;26.63;;;9.10;95.60;;;9.10;79.88;100128.56;4988622;28;20133;-80
2021/04/10 03:36:41;;;;;;;41.53;29.08;;;9.10;95.50;;;9.11;79.96;100141.13;4988432;28;20070;-81
2021/04/10 03:39:09;;;;;;;36.45;26.48;;;9.10;95.60;;;9.10;79.82;100129.44;4988541;28;20148;-81
2021/04/10 03:41:40;;;;;;;43.35;28.35;;;9.10;95.40;;;9.11;80.26;100135.72;4998353;28;20121;-81
2021/04/10 03:44:08;;;;;;;38.70;26.92;;;9.10;95.40;;;9.09;80.03;100130.44;4989817;28;20073;-81
2021/04/10 03:46:36;;;;;;;41.45;27.15;;;9.10;95.50;;;9.09;79.76;100140.47;4989095;28;20038;-81
2021/04/10 03:49:04;;;;;;;41.67;27.42;;;9.10;95.30;;;9.09;80.07;100133.16;4989094;28;20533;-81
2021/04/10 03:51:32;;;;;;;41.15;28.13;;;9.10;95.60;;;9.06;80.29;100132.69;4988568;28;20046;-81
2021/04/10 03:54:02;;;;;;;39.58;27.65;;;9.10;95.90;;;9.08;80.22;100131.50;4987452;28;20050;-84
2021/04/10 03:56:29;;;;;;;38.35;26.42;;;9.10;95.80;;;9.07;80.43;100128.97;4996236;28;20046;-82
2021/04/10 03:59:03;;;;;;;41.30;27.63;;;9.00;95.70;;;9.06;80.13;100128.09;4989604;28;20306;-83
2021/04/10 04:01:41;;;;;;;38.28;26.15;;;9.10;95.80;;;9.09;80.30;100132.34;4997799;28;20106;-83
2021/04/10 04:04:08;;;;;;;40.90;25.92;;;9.10;95.70;;;9.08;79.94;100133.34;4995424;28;20118;-82
2021/04/10 04:06:36;;;;;;;36.25;26.40;;;9.10;95.60;;;9.10;79.77;100128.56;4997895;28;20061;-82
2021/04/10 04:09:03;;;;;;;38.75;26.58;;;9.10;95.40;;;9.09;79.69;100130.44;4997148;28;20038;-83
2021/04/10 04:11:30;;;;;;;40.50;25.63;;;9.10;95.60;;;9.07;79.88;100142.53;4998175;28;20125;-82
2021/04/10 04:13:57;;;;;;;43.83;29.48;;;9.10;95.60;;;9.07;80.12;100134.38;4995794;28;20058;-83
2021/04/10 04:16:24;;;;;;;43.67;28.27;;;9.00;95.40;;;9.08;80.06;100141.50;4995920;28;20042;-83
2021/04/10 04:18:50;;;;;;;37.35;26.77;;;9.00;95.60;;;9.07;80.19;100153.38;4994951;28;20105;-83
2021/04/10 04:21:17;;;;;;;39.88;27.80;;;9.00;95.90;;;9.07;79.95;100162.38;4996098;28;20053;-83
2021/04/10 04:23:45;;;;;;;39.28;27.60;;;9.00;95.80;;;9.09;80.31;100162.19;4995001;28;20038;-83
2021/04/10 04:26:12;;;;;;;38.20;27.05;;;9.00;96.10;;;9.09;80.03;100164.91;4995614;28;20057;-83
2021/04/10 04:28:38;;;;;;;42.05;28.00;;;9.00;96.00;;;9.08;79.94;100168.63;4997502;28;20046;-83
2021/04/10 04:31:05;;;;;;;40.95;26.88;;;9.00;95.90;;;9.07;80.08;100173.22;4996095;28;20057;-83
2021/04/10 04:33:32;;;;;;;38.88;27.42;;;9.00;95.80;;;9.06;80.01;100166.09;4996682;28;20147;-83
2021/04/10 04:35:59;;;;;;;39.30;28.13;;;9.00;95.90;;;9.05;79.95;100164.44;4996475;28;20038;-82
2021/04/10 04:38:25;;;;;;;39.97;27.48;;;8.90;96.10;;;9.05;80.07;100167.16;4996256;28;20664;-83
2021/04/10 04:40:53;;;;;;;39.85;27.73;;;8.90;96.00;;;9.04;79.96;100170.88;4995588;28;20050;-82
2021/04/10 04:43:20;;;;;;;39.42;26.73;;;8.90;95.80;;;9.04;80.26;100172.75;4995760;28;20066;-82
2021/04/10 04:45:47;;;;;;;45.85;30.33;;;9.00;95.80;;;9.04;80.08;100168.16;4995307;28;20042;-82
2021/04/10 04:48:13;;;;;;;45.78;29.83;;;9.00;96.00;;;9.03;79.60;100171.06;4994213;28;20046;-83
2021/04/10 04:50:40;;;;;;;45.90;30.83;;;9.00;95.90;;;9.02;80.43;100169.38;4994894;28;20042;-83
2021/04/10 04:53:07;;;;;;;43.35;29.98;;;8.90;96.30;;;9.00;80.54;100170.41;4992623;28;20116;-83
2021/04/10 04:55:34;;;;;;;50.78;31.75;;;9.00;96.10;;;9.02;80.72;100172.09;4994241;28;20046;-82
2021/04/10 04:58:01;;;;;;;45.15;30.40;;;9.00;96.40;;;9.05;80.46;100178.00;4995185;28;20130;-83
2021/04/10 05:00:29;;;;;;;47.60;31.52;;;9.00;96.40;;;9.08;80.66;100174.06;4995191;28;20469;-83
2021/04/10 05:02:56;;;;;;;47.92;30.83;;;9.00;96.40;;;9.07;80.90;100175.94;4995736;28;20057;-83
2021/04/10 05:05:23;;;;;;;46.20;30.40;;;9.10;96.30;;;9.05;80.62;100175.28;4994670;28;20077;-83
2021/04/10 05:07:49;;;;;;;44.63;31.00;;;9.00;96.40;;;9.08;80.58;100184.91;4995349;28;20054;-83
2021/04/10 05:10:16;;;;;;;50.45;34.17;;;9.10;96.40;;;9.09;80.40;100186.63;4993592;28;20125;-83
2021/04/10 05:12:43;;;;;;;49.50;32.95;;;9.10;96.30;;;9.11;80.38;100190.00;4991766;28;20038;-82
2021/04/10 05:15:12;;;;;;;50.00;31.13;;;9.10;96.20;;;9.11;80.10;100181.84;4994305;28;20077;-84
2021/04/10 05:17:39;;;;;;;46.53;32.53;;;9.10;96.30;;;9.11;80.10;100184.56;4991607;28;20038;-83
2021/04/10 05:20:08;;;;;;;53.28;32.33;;;9.10;96.10;;;9.11;79.80;100190.84;4992929;28;20524;-86
2021/04/10 05:22:35;;;;;;;47.80;32.90;;;9.10;96.00;;;9.12;80.04;100188.94;4991872;28;20125;-86
2021/04/10 05:25:03;;;;;;;42.30;30.67;;;9.10;95.40;;;9.13;79.30;100198.81;4993043;28;20081;-86
2021/04/10 05:27:29;;;;;;;42.97;29.50;;;9.10;94.50;;;9.11;79.52;100200.84;4993078;28;20136;-86
2021/04/10 05:29:56;;;;;;;50.67;30.73;;;9.00;94.20;;;9.13;78.34;100204.22;4992703;28;20081;-86
2021/04/10 05:32:24;;;;;;;46.30;29.80;;;9.10;93.80;;;9.12;78.37;100205.25;4993435;28;20046;-86
2021/04/10 05:34:53;;;;;;;46.35;30.02;;;9.10;93.50;;;9.10;78.75;100204.59;4992929;28;20120;-86
2021/04/10 05:37:20;;;;;;;42.92;29.13;;;9.10;93.40;;;9.12;78.29;100213.38;4992757;28;20043;-85
2021/04/10 05:39:47;;;;;;;40.65;28.55;;;9.10;93.20;;;9.13;77.53;100205.06;4993214;28;20224;-85
2021/04/10 05:42:14;;;;;;;44.25;28.25;;;9.10;92.50;;;9.11;77.91;100214.44;4992388;28;20065;-85
2021/04/10 05:44:40;;;;;;;42.58;28.23;;;9.10;93.00;;;9.09;78.06;100221.91;4992628;28;20088;-85
2021/04/10 05:47:07;;;;;;;42.30;29.02;;;9.10;93.20;;;9.11;78.16;100231.56;4992355;28;20916;-85
2021/04/10 05:49:35;;;;;;;39.88;27.48;;;9.10;93.10;;;9.10;77.76;100231.72;4993685;28;20046;-85
2021/04/10 05:52:02;;;;;;;38.65;27.33;;;9.10;93.00;;;9.09;77.66;100238.19;4992483;28;20399;-85
2021/04/10 05:54:28;;;;;;;40.20;27.65;;;9.10;92.60;;;9.09;77.58;100230.91;4992407;28;20066;-85
2021/04/10 05:56:55;;;;;;;39.63;27.83;;;9.00;92.40;;;9.11;77.66;100236.16;4992204;28;20427;-85
2021/04/10 05:59:22;;;;;;;37.33;27.38;;;9.00;92.60;;;9.11;77.56;100233.44;4991654;28;20077;-85
2021/04/10 06:01:49;;;;;;;45.08;29.40;;;9.00;92.30;;;9.12;77.30;100245.97;4992049;28;20084;-85
2021/04/10 06:04:15;;;;;;;37.55;27.25;;;9.10;92.60;;;9.12;77.48;100245.97;4992209;28;20049;-85
2021/04/10 06:06:43;;;;;;;40.00;27.42;;;9.10;92.70;;;9.15;77.13;100238.31;4992928;28;20495;-84
2021/04/10 06:09:10;;;;;;;43.45;27.25;;;9.10;91.90;;;9.16;76.72;100241.88;4991232;28;20058;-85
2021/04/10 06:11:36;;;;;;;40.83;27.25;;;9.10;91.90;;;9.14;76.12;100243.94;4991479;28;20057;-85
2021/04/10 06:14:03;;;;;;;40.22;26.70;;;9.10;91.20;;;9.12;76.61;100244.13;4992264;28;20057;-85
2021/04/10 06:16:30;;;;;;;43.47;28.25;;;9.00;91.30;;;9.11;76.47;100247.00;4992008;28;20042;-85
2021/04/10 06:18:57;;;;;;;39.70;27.73;;;9.00;92.00;;;9.14;76.23;100249.38;4992506;28;20050;-86
2021/04/10 06:21:24;;;;;;;41.63;28.80;;;9.10;91.90;;;9.14;76.07;100249.38;4992447;28;20070;-85
2021/04/10 06:23:51;;;;;;;40.63;27.77;;;9.00;91.20;;;9.14;75.64;100250.22;4990918;28;20074;-83
2021/04/10 06:26:18;;;;;;;41.40;28.38;;;9.10;91.30;;;9.15;75.77;100259.19;4991409;28;20047;-85
2021/04/10 06:28:45;;;;;;;45.17;29.33;;;9.10;91.30;;;9.15;76.11;100256.47;4992114;28;20070;-85
2021/04/10 06:31:12;;;;;;;42.03;28.13;;;9.10;91.20;;;9.16;75.89;100258.19;4991567;28;20042;-86
2021/04/10 06:33:38;;;;;;;41.95;28.17;;;9.10;91.40;;;9.17;75.83;100255.25;4991509;28;20123;-85
2021/04/10 06:36:06;;;;;;;43.17;28.77;;;9.10;91.30;;;9.16;75.93;100253.59;4991567;28;20085;-86
2021/04/10 06:38:33;;;;;;;40.60;28.75;;;9.20;91.10;;;9.17;75.76;100260.69;4987992;28;20176;-86
2021/04/10 06:41:00;;;;;;;48.92;29.40;;;9.20;90.90;;;9.17;75.48;100257.13;4991135;28;20050;-86
2021/04/10 06:43:27;;;;;;;43.65;29.52;;;9.10;90.90;;;9.15;75.61;100272.75;4990883;28;20046;-84
2021/04/10 06:45:56;;;;;;;42.72;30.13;;;9.10;90.60;;;9.16;76.17;100267.16;4992408;28;20120;-83
2021/04/10 06:48:25;;;;;;;44.17;29.83;;;9.10;90.70;;;9.18;76.04;100264.25;4991263;28;20047;-84
2021/04/10 06:50:53;;;;;;;51.20;29.92;;;9.10;91.00;;;9.16;75.85;100260.88;4991255;28;20070;-84
2021/04/10 06:53:23;;;;;;;44.05;29.35;;;9.20;90.50;;;9.16;75.97;100259.00;4988279;28;20035;-84
2021/04/10 06:55:53;;;;;;;45.42;31.05;;;9.20;90.30;;;9.19;76.04;100263.22;4991555;28;20053;-84
2021/04/10 06:58:37;;;;;;;48.03;30.43;;;9.20;90.70;;;9.18;75.47;100272.41;4990212;28;20125;-83
2021/04/10 07:01:04;;;;;;;54.00;30.88;;;9.10;90.50;;;9.18;75.24;100272.41;4989698;28;20292;-86
2021/04/10 07:03:31;;;;;;;46.90;29.42;;;9.10;90.50;;;9.18;75.70;100261.56;4990623;28;20054;-85
2021/04/10 07:05:58;;;;;;;43.47;28.70;;;9.10;90.60;;;9.18;75.70;100266.97;4990590;28;20851;-85
2021/04/10 07:08:25;;;;;;;49.33;28.92;;;9.20;90.30;;;9.17;75.38;100262.56;4991207;28;20045;-85
2021/04/10 07:10:52;;;;;;;50.42;31.10;;;9.20;90.30;;;9.19;75.25;100266.81;4991243;28;20046;-85
2021/04/10 07:13:19;;;;;;;45.55;29.45;;;9.20;90.30;;;9.18;75.65;100265.09;4989515;28;20566;-85
2021/04/10 07:15:47;;;;;;;46.22;29.85;;;9.20;90.20;;;9.20;75.41;100271.19;4990476;28;20515;-88
2021/04/10 07:18:14;;;;;;;46.08;29.42;;;9.20;90.20;;;9.23;75.24;100271.84;4987922;28;20050;-90
2021/04/10 07:20:41;;;;;;;49.35;30.73;;;9.20;90.10;;;9.21;75.91;100272.03;4989103;28;20034;-86
2021/04/10 07:23:12;;;;;;;50.88;31.52;;;9.20;90.60;;;9.21;75.31;100272.03;4988396;28;20085;-87
2021/04/10 07:25:40;;;;;;;;;;;9.10;90.30;;;9.16;75.38;100274.47;4987843;28;20110;-89
2021/04/10 07:28:28;;;;;;;49.85;29.42;;;9.20;90.20;;;9.16;75.34;100275.31;5000706;28;19992;-84
2021/04/10 07:30:59;;;;;;;53.58;31.70;;;9.20;90.00;;;9.17;75.93;100284.28;4990643;28;20054;-85
2021/04/10 07:33:28;;;;;;;50.92;30.80;;;9.20;90.10;;;9.17;75.22;100281.56;4990446;28;20047;-86
2021/04/10 07:35:54;;;;;;;57.20;32.17;;;9.20;90.20;;;9.16;75.58;100277.19;4990219;28;20495;-84
2021/04/10 07:38:33;;;;;;;63.70;34.53;;;9.20;90.00;;;9.17;75.62;100285.13;4992654;28;20046;-86
2021/04/10 07:41:03;;;;;;;58.60;34.85;;;9.30;90.40;;;9.18;76.03;100278.69;4990605;28;20050;-84
2021/04/10 07:43:31;;;;;;;63.42;36.38;;;9.30;90.30;;;9.16;75.52;100286.16;4989149;28;20042;-87
2021/04/10 07:46:13;;;;;;;68.22;37.53;;;9.30;90.00;;;9.15;75.77;100289.88;4991343;28;20046;-85
2021/04/10 07:48:56;;;;;;;69.57;37.17;;;9.20;90.00;;;9.18;75.80;100299.56;4987772;28;20046;-84
2021/04/10 07:51:23;;;;;;;64.38;35.35;;;9.30;90.20;;;9.19;75.59;100302.09;4988025;28;20463;-84
2021/04/10 07:53:50;;;;;;;62.33;34.05;;;9.30;89.80;;;9.18;75.17;100299.56;4990185;28;20590;-85
2021/04/10 07:56:17;;;;;;;60.50;33.10;;;9.30;89.60;;;9.19;75.62;100301.22;4990797;28;20043;-86
2021/04/10 07:58:44;;;;;;;62.17;33.92;;;9.30;90.00;;;9.23;75.59;100299.84;4990729;28;20050;-85
2021/04/10 08:01:13;;;;;;;61.65;33.22;;;9.30;90.00;;;9.24;75.89;100301.53;4990883;28;20046;-85
2021/04/10 08:03:42;;;;;;;54.20;32.35;;;9.30;90.90;;;9.23;75.92;100309.88;4990278;28;20038;-84
2021/04/10 08:06:17;;;;;;;58.22;31.83;;;9.30;90.00;;;9.24;75.19;100303.44;4990699;28;20424;-84
2021/04/10 08:08:54;;;;;;;54.00;30.00;;;9.30;89.80;;;9.21;75.09;100310.03;4988078;28;20066;-84
2021/04/10 08:11:36;;;;;;;51.97;29.33;;;9.40;89.40;;;9.23;75.74;100312.59;4990627;28;20128;-82
2021/04/10 08:14:06;;;;;;;56.60;30.63;;;9.40;89.40;;;9.23;75.58;100313.41;4986065;28;20061;-86
2021/04/10 08:16:39;;;;;;;61.20;31.23;;;9.40;89.80;;;9.27;75.36;100311.19;4990095;28;20038;-85
2021/04/10 08:19:06;;;;;;;60.92;31.52;;;9.40;89.70;;;9.28;75.37;100311.00;4988932;28;20766;-86
2021/04/10 08:21:48;;;;;;;55.92;31.92;;;9.40;89.80;;;9.29;75.97;100315.44;4989510;28;20133;-86
2021/04/10 08:24:41;;;;;;;70.18;32.83;;;9.50;90.10;;;9.29;75.85;100312.72;4989689;28;20050;-86
2021/04/10 08:27:11;;;;;;;65.03;31.98;;;9.60;89.90;;;9.33;75.76;100319.47;4968698;28;20128;-87
2021/04/10 08:29:39;;;;;;;63.70;34.65;;;9.60;89.40;;;9.34;76.00;100321.16;4990438;28;20742;-88
2021/04/10 08:32:09;;;;;;;65.10;33.53;;;9.60;89.30;;;9.35;75.77;100306.56;4990049;28;20762;-86
2021/04/10 08:34:36;;;;;;;60.80;33.50;;;9.60;89.00;;;9.36;75.74;100321.81;4989452;28;20065;-86
2021/04/10 08:37:08;;;;;;;62.88;32.80;;;9.70;89.30;;;9.35;75.44;100316.59;4989138;28;20034;-87
2021/04/10 08:39:39;;;;;;;68.15;35.15;;;9.60;88.90;;;9.39;75.39;100315.19;4988824;28;20469;-87
2021/04/10 08:42:09;;;;;;;63.17;34.85;;;9.70;89.20;;;9.42;75.56;100306.66;4988493;28;20458;-86
2021/04/10 08:44:37;;;;;;;64.03;34.95;;;9.70;89.10;;;9.45;75.66;100310.91;4988844;28;20054;-84
2021/04/10 08:47:05;;;;;;;70.53;36.92;;;9.80;89.10;;;9.46;75.79;100318.00;4993014;28;20039;-84
2021/04/10 08:49:39;;;;;;;78.05;40.17;;;9.90;89.50;;;9.47;75.56;100314.28;4992053;28;20048;-84
2021/04/10 08:52:08;;;;;;;70.70;38.35;;;9.90;88.60;;;9.48;75.44;100318.66;4994289;28;20066;-81
2021/04/10 08:54:38;;;;;;;77.55;38.88;;;9.90;88.40;;;9.50;75.70;100317.47;4993899;28;20069;-82
2021/04/10 08:57:09;;;;;;;77.72;39.97;;;9.90;88.60;;;9.50;75.88;100308.47;4994822;28;20046;-82
2021/04/10 08:59:41;;;;;;;75.63;40.47;;;9.90;88.40;;;9.52;75.76;100314.56;4995550;28;20097;-81
2021/04/10 09:02:13;;;;;;;74.35;40.30;;;9.90;88.80;;;9.55;75.49;100316.91;4994923;28;20054;-82
2021/04/10 09:05:04;;;;;;;73.90;41.63;;;10.00;88.70;;;9.56;75.79;100321.34;4994953;28;20053;-81
2021/04/10 09:08:07;;;;;;;73.15;38.33;;;10.00;89.00;;;9.57;75.59;100321.13;4995786;28;20073;-81
2021/04/10 09:10:55;;;;;;;73.63;40.50;;;10.00;88.30;;;9.58;75.69;100322.81;4994814;28;20057;-81
2021/04/10 09:13:44;;;;;;;78.45;43.47;;;10.00;88.40;;;9.61;75.37;100310.75;4996753;28;20061;-81
2021/04/10 09:16:38;;;;;;;76.05;43.33;;;10.00;88.60;;;9.63;75.79;100318.72;4993492;28;20050;-81
2021/04/10 09:19:16;;;;;;;81.72;41.15;;;10.00;89.50;;;9.60;76.08;100322.66;4996066;28;20042;-82
2021/04/10 09:21:50;;;;;;;73.95;42.95;;;10.00;89.10;;;9.58;75.83;100316.56;4995321;28;20050;-82
2021/04/10 09:24:32;;;;;;;80.30;42.78;;;10.10;88.60;;;9.60;76.04;100325.38;4995092;28;20046;-82
2021/04/10 09:27:10;;;;;;;77.13;42.05;;;10.10;88.50;;;9.61;76.32;100327.03;4993835;28;20047;-82
2021/04/10 09:29:46;;;;;;;102.32;43.38;;;10.10;88.70;;;9.63;75.98;100324.97;4996965;28;20038;-82
2021/04/10 09:32:14;;;;;;;69.53;40.65;;;10.10;88.20;;;9.63;75.86;100322.25;4995997;28;20042;-82
2021/04/10 09:34:59;;;;;;;71.43;40.55;;;10.20;88.20;;;9.67;76.08;100320.03;4994943;28;20050;-82
2021/04/10 09:38:00;;;;;;;103.55;44.53;;;10.20;88.40;;;9.70;76.23;100325.94;4995262;28;20046;-83
2021/04/10 09:40:50;;;;;;;77.53;40.55;;;10.20;88.40;;;9.70;75.89;100325.94;4994862;28;20073;-82
2021/04/10 09:43:19;;;;;;;76.50;41.47;;;10.20;88.10;;;9.71;75.92;100322.22;4995248;28;20396;-83
2021/04/10 09:45:51;;;;;;;75.15;41.75;;;10.30;88.40;;;9.72;75.88;100321.16;4996367;28;20100;-82
2021/04/10 09:48:36;;;;;;;69.53;38.85;;;10.30;88.40;;;9.75;75.97;100331.69;4995779;28;20042;-83
2021/04/10 09:51:10;;;;;;;75.00;40.65;;;10.30;88.30;;;9.76;76.13;100325.19;4995340;28;20064;-83
2021/04/10 09:53:38;;;;;;;76.68;40.20;;;10.30;88.00;;;9.75;75.65;100322.69;4995001;28;20061;-83
2021/04/10 09:56:12;;;;;;;80.82;40.55;;;10.30;87.40;;;9.75;76.14;100328.13;4995806;28;20490;-80
2021/04/10 09:58:56;;;;;;;69.72;39.15;;;10.30;87.90;;;9.75;75.69;100323.53;4993909;28;20034;-82
2021/04/10 10:01:26;;;;;;;68.72;38.60;;;10.30;87.40;;;9.75;75.71;100326.25;4993637;28;20066;-81
2021/04/10 10:03:54;;;;;;;68.53;38.65;;;10.30;87.60;;;9.75;75.71;100328.97;4996666;28;20388;-82
2021/04/10 10:06:31;;;;;;;71.97;39.22;;;10.20;87.60;;;9.75;75.99;100323.53;4996982;28;20043;-82
2021/04/10 10:08:59;;;;;;;74.00;37.80;;;10.20;88.20;;;9.77;75.95;100323.34;4994651;28;20046;-81
2021/04/10 10:11:26;;;;;;;68.15;37.35;;;10.20;88.30;;;9.77;75.41;100321.47;4995324;28;20042;-81
2021/04/10 10:13:56;;;;;;;68.25;37.53;;;10.20;87.90;;;9.75;75.64;100315.38;4994191;28;20050;-81
2021/04/10 10:16:30;;;;;;;71.85;39.17;;;10.20;87.80;;;9.77;75.88;100318.75;4995660;28;20093;-81
2021/04/10 10:18:58;;;;;;;69.38;37.60;;;10.20;88.10;;;9.78;75.97;100314.16;4995385;28;20045;-81
2021/04/10 10:21:26;;;;;;;68.18;39.15;;;10.30;88.10;;;9.82;75.85;100311.91;4994102;28;20042;-81
2021/04/10 10:23:56;;;;;;;70.82;37.88;;;10.20;88.30;;;9.82;76.29;100315.47;4993682;28;20054;-81
2021/04/10 10:26:26;;;;;;;67.63;37.97;;;10.30;88.70;;;9.84;76.28;100307.13;4992628;28;20050;-82
2021/04/10 10:28:59;;;;;;;73.43;36.42;;;10.30;88.90;;;9.85;75.99;100301.53;4993273;28;20046;-81